Time;durP1;ratioP1;P1;durP2;ratioP2;P2;SDS_P1;SDS_P2;PMS_P1;PMS_P2;Temp;Humidity;BMP_temperature;BMP_pressure;BME280_temperature;BME280_humidity;BME280_pressure;Samples;Min_cycle;Max_cycle;Signal;HPM_P1;HPM_P2
2021/03/12 00:00:23;;;;;;;60.30;23.20;;;2.40;99.90;;;;;;5020316;28;20231;-88
2021/03/12 00:02:48;;;;;;;43.90;17.13;;;2.40;99.90;;;;;;5037220;28;20184;-88
2021/03/12 00:05:15;;;;;;;61.73;26.27;;;3.70;99.90;;;;;;5036949;28;20279;-88
2021/03/12 00:07:41;;;;;;;41.13;18.37;;;2.50;99.90;;;;;;5054700;28;20286;-88
2021/03/12 00:10:13;;;;;;;40.77;19.00;;;2.50;99.90;;;;;;5036804;28;20222;-87
2021/03/12 00:12:39;;;;;;;29.00;15.03;;;2.50;99.90;;;;;;5054741;28;20171;-88
2021/03/12 00:15:12;;;;;;;65.20;29.23;;;2.60;99.90;;;;;;5054442;28;20538;-88
2021/03/12 00:17:38;;;;;;;30.03;15.83;;;2.70;99.90;;;;;;5054718;28;20168;-88
2021/03/12 00:20:10;;;;;;;47.60;22.53;;;2.70;99.90;;;;;;5036322;28;20179;-88
2021/03/12 00:22:36;;;;;;;34.27;16.27;;;2.70;99.90;;;;;;5054735;28;20168;-88
2021/03/12 00:25:04;;;;;;;31.67;15.30;;;2.70;99.90;;;;;;5036572;28;20176;-89
2021/03/12 00:27:31;;;;;;;28.10;14.93;;;2.80;99.90;;;;;;5036692;28;20214;-88
2021/03/12 00:29:57;;;;;;;51.17;21.73;;;3.10;99.90;;;;;;5053843;28;20212;-88
2021/03/12 00:32:22;;;;;;;28.53;13.93;;;2.80;99.90;;;;;;5036220;28;20625;-88
2021/03/12 00:34:48;;;;;;;32.27;15.03;;;3.30;99.90;;;;;;5036033;28;20180;-88
2021/03/12 00:37:14;;;;;;;25.20;13.37;;;2.90;99.90;;;;;;5036389;28;20220;-89
2021/03/12 00:39:39;;;;;;;24.73;12.60;;;2.90;99.90;;;;;;5036470;28;20237;-88
2021/03/12 00:42:07;;;;;;;24.77;11.83;;;3.00;99.90;;;;;;5036138;28;20596;-88
2021/03/12 00:44:33;;;;;;;27.37;13.83;;;3.00;99.90;;;;;;5054061;28;20182;-88
2021/03/12 00:46:59;;;;;;;26.00;13.87;;;3.50;99.90;;;;;;5053740;28;20172;-88
2021/03/12 00:49:25;;;;;;;23.47;12.33;;;3.10;99.90;;;;;;5036379;28;20680;-88
2021/03/12 00:51:51;;;;;;;26.37;12.83;;;3.10;99.90;;;;;;5053305;28;20173;-87
2021/03/12 00:54:17;;;;;;;26.00;14.30;;;3.20;99.90;;;;;;5036284;28;20306;-87
2021/03/12 00:56:42;;;;;;;25.20;14.07;;;3.20;99.90;;;;;;5035990;28;20506;-87
2021/03/12 00:59:08;;;;;;;31.50;14.03;;;3.30;99.90;;;;;;5035559;28;20285;-87
2021/03/12 01:01:34;;;;;;;27.73;13.57;;;3.30;99.90;;;;;;5019535;28;20246;-87
2021/03/12 01:03:59;;;;;;;46.97;19.13;;;3.20;99.90;;;;;;5018941;28;20271;-89
2021/03/12 01:06:25;;;;;;;25.27;14.13;;;3.30;99.90;;;;;;5019411;28;20270;-88
2021/03/12 01:08:51;;;;;;;26.43;14.27;;;3.20;99.90;;;;;;5002356;28;20211;-89
2021/03/12 01:11:16;;;;;;;33.73;15.47;;;4.60;99.90;;;;;;5035861;28;20184;-89
2021/03/12 01:13:42;;;;;;;26.87;13.90;;;3.40;99.90;;;;;;5035611;28;20268;-87
2021/03/12 01:16:08;;;;;;;27.57;13.67;;;3.20;99.90;;;;;;5053601;28;20255;-87
2021/03/12 01:18:34;;;;;;;25.13;14.43;;;3.20;99.90;;;;;;5019221;28;20192;-88
2021/03/12 01:21:00;;;;;;;24.30;14.10;;;3.80;99.90;;;;;;5035292;28;20660;-87
2021/03/12 01:23:26;;;;;;;26.00;14.07;;;3.20;99.90;;;;;;5035722;28;20180;-88
2021/03/12 01:25:52;;;;;;;29.53;13.27;;;3.20;99.90;;;;;;5035436;28;20559;-87
2021/03/12 01:28:17;;;;;;;26.80;13.80;;;3.30;99.90;;;;;;5035591;28;20538;-88
2021/03/12 01:30:45;;;;;;;30.40;16.37;;;3.10;99.90;;;;;;5035722;28;20179;-88
2021/03/12 01:33:11;;;;;;;25.47;13.93;;;3.10;99.90;;;;;;5053139;28;20208;-87
2021/03/12 01:35:38;;;;;;;28.00;14.50;;;3.60;99.90;;;;;;5018651;28;20218;-86
2021/03/12 01:38:04;;;;;;;24.53;11.73;;;3.10;99.90;;;;;;5035318;28;20279;-87
2021/03/12 01:40:31;;;;;;;25.83;14.57;;;3.10;99.90;;;;;;5035671;28;20176;-88
2021/03/12 01:43:00;;;;;;;36.73;17.83;;;3.10;99.90;;;;;;5052953;28;20617;-88
2021/03/12 01:45:41;;;;;;;29.77;14.77;;;3.10;99.90;;;;;;5053142;28;20188;-87
2021/03/12 01:48:10;;;;;;;26.27;14.30;;;3.00;99.90;;;;;;5052898;28;20257;-87
2021/03/12 01:50:37;;;;;;;24.87;13.23;;;3.10;99.90;;;;;;5053136;28;20230;-87
2021/03/12 01:53:14;;;;;;;28.10;15.50;;;3.20;99.90;;;;;;5035025;28;20179;-87
2021/03/12 01:55:40;;;;;;;26.50;14.97;;;3.50;99.90;;;;;;5053539;28;20604;-87
2021/03/12 01:58:06;;;;;;;26.53;14.10;;;3.40;99.90;;;;;;5052598;28;20172;-88
2021/03/12 02:00:32;;;;;;;26.77;14.07;;;3.10;99.90;;;;;;5052875;28;20223;-88
2021/03/12 02:02:59;;;;;;;23.97;12.57;;;3.10;99.90;;;;;;5053397;28;20209;-87
2021/03/12 02:05:25;;;;;;;26.80;14.23;;;4.30;99.90;;;;;;5039156;28;20187;-88
2021/03/12 02:07:51;;;;;;;30.10;15.27;;;3.10;99.90;;;;;;5056850;28;20192;-86
2021/03/12 02:10:19;;;;;;;28.37;14.63;;;3.10;99.90;;;;;;5057156;28;20179;-87
2021/03/12 02:13:05;;;;;;;30.13;15.03;;;4.50;99.90;;;;;;5039161;28;20179;-87
2021/03/12 02:15:40;;;;;;;29.60;15.47;;;3.10;99.90;;;;;;5039232;28;20190;-87
2021/03/12 02:18:19;;;;;;;27.43;14.77;;;3.20;99.90;;;;;;5057536;28;20172;-89
2021/03/12 02:20:56;;;;;;;27.30;14.80;;;3.00;99.90;;;;;;5039560;28;20270;-88
2021/03/12 02:23:39;;;;;;;25.30;14.67;;;3.10;99.90;;;;;;5039231;28;20185;-88
2021/03/12 02:26:34;;;;;;;25.57;14.30;;;3.30;99.90;;;;;;5038491;28;20655;-89
2021/03/12 02:29:04;;;;;;;27.13;14.70;;;3.10;99.90;;;;;;5038481;28;20679;-87
2021/03/12 02:31:32;;;;;;;20.67;11.53;;;3.10;99.90;;;;;;5056670;28;20191;-88
2021/03/12 02:33:59;;;;;;;28.67;14.80;;;4.30;99.90;;;;;;5038553;28;20654;-87
2021/03/12 02:36:31;;;;;;;29.13;16.13;;;3.10;99.90;;;;;;5038747;28;20282;-87
2021/03/12 02:38:58;;;;;;;27.00;13.60;;;3.00;99.90;;;;;;5056492;28;20621;-87
2021/03/12 02:41:28;;;;;;;32.47;16.47;;;3.10;99.90;;;;;;5056704;28;20179;-88
2021/03/12 02:43:55;;;;;;;31.27;15.47;;;3.10;99.90;;;;;;5038403;28;20637;-89
2021/03/12 02:46:22;;;;;;;34.83;15.87;;;4.50;99.90;;;;;;5056004;28;20174;-88
2021/03/12 02:48:49;;;;;;;37.63;17.10;;;4.20;99.90;;;;;;5038487;28;20723;-88
2021/03/12 02:51:16;;;;;;;26.63;14.63;;;3.70;99.90;;;;;;5056019;28;20184;-88
2021/03/12 02:53:42;;;;;;;30.27;15.70;;;3.00;99.90;;;;;;5038288;28;20188;-88
2021/03/12 02:56:08;;;;;;;28.23;15.13;;;3.10;99.90;;;;;;5055664;28;20186;-88
2021/03/12 02:58:35;;;;;;;27.50;14.83;;;4.00;99.90;;;;;;5056104;28;20180;-89
2021/03/12 03:01:03;;;;;;;23.67;13.13;;;3.10;99.90;;;;;;5056098;28;20233;-87
2021/03/12 03:03:31;;;;;;;32.87;15.67;;;3.00;99.90;;;;;;5038137;28;20215;-87
2021/03/12 03:05:57;;;;;;;27.93;14.93;;;3.10;99.90;;;;;;5038641;28;20203;-88
2021/03/12 03:08:23;;;;;;;29.30;14.73;;;3.00;99.90;;;;;;5037662;28;20628;-88
2021/03/12 03:10:50;;;;;;;31.30;15.97;;;3.00;99.90;;;;;;5005183;28;20207;-86
2021/03/12 03:13:16;;;;;;;31.27;17.27;;;4.10;99.90;;;;;;5055638;28;20234;-89
2021/03/12 03:15:43;;;;;;;28.87;15.97;;;3.10;99.90;;;;;;5021177;28;20186;-88
2021/03/12 03:18:09;;;;;;;33.43;16.03;;;4.10;99.90;;;;;;5037607;28;20224;-90
2021/03/12 03:20:35;;;;;;;29.87;16.00;;;2.90;99.90;;;;;;5037810;28;20184;-90
2021/03/12 03:23:01;;;;;;;28.87;14.77;;;2.90;99.90;;;;;;5055569;28;20694;-88
2021/03/12 03:25:27;;;;;;;29.23;16.10;;;2.90;99.90;;;;;;5055695;28;20203;-89
2021/03/12 03:27:53;;;;;;;29.30;13.97;;;3.00;99.90;;;;;;5055196;28;20562;-89
2021/03/12 03:30:19;;;;;;;26.80;15.30;;;3.00;99.90;;;;;;5055240;28;20283;-89
2021/03/12 03:32:44;;;;;;;29.80;16.37;;;2.90;99.90;;;;;;5055673;28;20570;-89
2021/03/12 03:35:12;;;;;;;29.93;17.57;;;4.30;99.90;;;;;;5037157;28;20185;-88
2021/03/12 03:37:38;;;;;;;27.13;14.13;;;2.90;99.90;;;;;;5037645;28;20384;-88
2021/03/12 03:40:09;;;;;;;25.77;15.33;;;2.90;99.90;;;;;;5055134;28;20208;-88
2021/03/12 03:42:36;;;;;;;29.63;16.07;;;2.90;99.90;;;;;;5037735;28;20190;-89
2021/03/12 03:45:06;;;;;;;29.97;16.03;;;2.90;99.90;;;;;;5020973;28;20614;-89
2021/03/12 03:47:33;;;;;;;31.70;16.47;;;2.90;99.90;;;;;;5054824;28;20208;-89
2021/03/12 03:49:59;;;;;;;28.87;15.10;;;2.90;99.90;;;;;;5037406;28;20278;-89
2021/03/12 03:52:26;;;;;;;30.37;16.17;;;3.20;99.90;;;;;;5054777;28;20274;-89
2021/03/12 03:54:54;;;;;;;30.77;15.67;;;2.90;99.90;;;;;;5020822;28;20184;-89
2021/03/12 03:57:23;;;;;;;30.23;15.60;;;3.20;99.90;;;;;;5036602;28;20219;-88
2021/03/12 03:59:50;;;;;;;30.17;16.23;;;2.90;99.90;;;;;;5054551;28;20246;-90
2021/03/12 04:02:17;;;;;;;27.37;16.03;;;4.10;99.90;;;;;;5036755;28;20226;-87
2021/03/12 04:04:45;;;;;;;30.37;16.10;;;4.20;99.90;;;;;;5036721;28;20179;-88
2021/03/12 04:07:12;;;;;;;32.13;16.80;;;2.90;99.90;;;;;;5036363;28;20571;-89
2021/03/12 04:09:39;;;;;;;32.80;16.83;;;2.80;99.90;;;;;;5020535;28;20255;-90
2021/03/12 04:12:07;;;;;;;31.83;15.60;;;3.70;99.90;;;;;;5036712;28;20662;-89
2021/03/12 04:14:33;;;;;;;40.30;20.47;;;2.80;99.90;;;;;;5020617;28;20194;-89
2021/03/12 04:17:00;;;;;;;36.60;17.37;;;2.80;99.90;;;;;;5036612;28;20232;-88
2021/03/12 04:19:26;;;;;;;32.17;16.03;;;3.40;99.90;;;;;;5003719;28;20191;-91
2021/03/12 04:21:52;;;;;;;29.57;16.37;;;2.70;99.90;;;;;;5054438;28;20179;-93
2021/03/12 04:24:18;;;;;;;35.40;17.53;;;2.80;99.90;;;;;;5036636;28;20194;-91
2021/03/12 04:26:45;;;;;;;37.30;16.87;;;2.90;99.90;;;;;;5053943;28;20263;-90
2021/03/12 04:29:11;;;;;;;15.40;9.33;;;2.80;99.90;;;;;;5003595;28;20207;-94
2021/03/12 04:31:37;;;;;;;30.40;15.60;;;2.80;99.90;;;;;;5036861;28;20514;-90
2021/03/12 04:34:03;;;;;;;26.13;15.60;;;2.80;99.90;;;;;;5054356;28;20179;-89
2021/03/12 04:36:30;;;;;;;29.70;15.47;;;2.80;99.90;;;;;;5035937;28;20691;-89
2021/03/12 04:38:56;;;;;;;34.17;16.77;;;2.70;99.90;;;;;;5036211;28;20184;-88
2021/03/12 04:41:22;;;;;;;31.93;18.10;;;3.50;99.90;;;;;;5035853;28;20179;-89
2021/03/12 04:43:48;;;;;;;35.40;19.63;;;2.80;99.90;;;;;;5019882;28;20242;-89
2021/03/12 04:46:14;;;;;;;38.13;20.30;;;3.30;99.90;;;;;;5019525;28;20191;-91
2021/03/12 04:48:41;;;;;;;33.27;16.20;;;2.70;99.90;;;;;;5036305;28;20727;-90
2021/03/12 04:51:09;;;;;;;32.17;18.10;;;2.70;99.90;;;;;;5001459;28;20235;-89
2021/03/12 04:53:37;;;;;;;32.23;15.87;;;3.00;99.90;;;;;;5052437;28;20184;-89
2021/03/12 04:56:04;;;;;;;34.67;18.17;;;2.80;99.90;;;;;;5018882;28;20241;-87
2021/03/12 04:58:30;;;;;;;31.17;17.00;;;2.80;99.90;;;;;;5052298;28;20187;-88
2021/03/12 05:00:56;;;;;;;31.80;17.97;;;3.00;99.90;;;;;;5001759;28;20227;-89
2021/03/12 05:03:23;;;;;;;33.00;17.43;;;2.90;99.90;;;;;;5012646;28;20304;-89
2021/03/12 05:05:49;;;;;;;25.23;13.87;;;2.90;99.90;;;;;;4994746;28;20192;-89
2021/03/12 05:08:16;;;;;;;34.23;18.13;;;3.80;99.90;;;;;;5029831;28;20235;-89
2021/03/12 05:11:06;;;;;;;33.20;17.43;;;2.90;99.90;;;;;;5022125;28;20197;-89
2021/03/12 05:13:31;;;;;;;30.33;17.07;;;2.90;99.90;;;;;;5030535;28;20188;-89
2021/03/12 05:15:57;;;;;;;32.83;17.90;;;3.00;99.90;;;;;;5012999;28;20172;-89
2021/03/12 05:18:23;;;;;;;32.47;17.23;;;3.60;99.90;;;;;;5015282;28;20260;-90
2021/03/12 05:20:50;;;;;;;37.27;18.00;;;3.00;99.90;;;;;;5036327;28;20185;-91
2021/03/12 05:23:17;;;;;;;32.63;18.00;;;3.40;99.90;;;;;;5024118;28;20188;-91
2021/03/12 05:25:43;;;;;;;36.17;18.23;;;3.00;99.90;;;;;;5032752;28;20214;-89
2021/03/12 05:28:10;;;;;;;41.00;22.33;;;3.10;99.90;;;;;;5021329;28;20297;-85
2021/03/12 05:30:36;;;;;;;36.07;20.03;;;3.10;99.90;;;;;;5041095;28;20185;-84
2021/03/12 05:33:01;;;;;;;32.07;18.63;;;3.10;99.90;;;;;;5041101;28;20251;-85
2021/03/12 05:35:27;;;;;;;30.73;17.13;;;3.00;99.90;;;;;;5038635;28;20223;-89
2021/03/12 05:37:53;;;;;;;32.67;17.57;;;3.10;99.90;;;;;;5013654;28;20181;-90
2021/03/12 05:40:19;;;;;;;45.63;19.40;;;4.50;99.90;;;;;;5031030;28;20192;-87
2021/03/12 05:42:48;;;;;;;30.20;17.70;;;3.10;99.90;;;;;;5027149;28;20260;-86
2021/03/12 05:45:16;;;;;;;32.57;17.00;;;3.30;99.90;;;;;;5026580;28;20648;-86
2021/03/12 05:47:42;;;;;;;31.43;16.87;;;3.20;99.90;;;;;;5021011;28;20200;-85
2021/03/12 05:50:08;;;;;;;36.93;18.47;;;3.20;99.90;;;;;;5015094;28;20206;-90
2021/03/12 05:52:34;;;;;;;31.50;16.97;;;3.20;99.90;;;;;;5012491;28;20231;-88
2021/03/12 05:55:00;;;;;;;31.43;17.87;;;3.40;99.90;;;;;;5013111;28;20189;-87
2021/03/12 05:57:29;;;;;;;33.43;17.73;;;3.40;99.90;;;;;;5030672;28;20195;-87
2021/03/12 05:59:55;;;;;;;30.43;19.30;;;3.40;99.90;;;;;;5013040;28;20274;-89
2021/03/12 06:02:20;;;;;;;33.10;18.13;;;3.30;99.90;;;;;;5029390;28;20195;-90
2021/03/12 06:04:46;;;;;;;35.23;19.93;;;3.30;99.90;;;;;;5029326;28;20883;-88
2021/03/12 06:07:16;;;;;;;31.00;17.40;;;3.30;99.90;;;;;;5030963;28;20193;-88
2021/03/12 06:09:43;;;;;;;34.40;20.17;;;3.40;99.90;;;;;;5029186;28;20185;-87
2021/03/12 06:12:10;;;;;;;37.83;20.50;;;3.30;99.90;;;;;;5030175;28;20184;-89
2021/03/12 06:14:56;;;;;;;37.30;19.83;;;3.30;99.90;;;;;;5029882;28;20180;-89
2021/03/12 06:17:42;;;;;;;35.20;19.70;;;3.20;99.90;;;;;;5012817;28;20649;-87
2021/03/12 06:20:19;;;;;;;33.87;20.17;;;3.30;99.90;;;;;;5013105;28;20206;-87
2021/03/12 06:22:48;;;;;;;31.57;18.63;;;3.20;99.90;;;;;;5030010;28;20188;-89
2021/03/12 06:25:18;;;;;;;26.67;15.43;;;4.10;99.90;;;;;;5029846;28;20176;-88
2021/03/12 06:27:46;;;;;;;35.83;20.37;;;3.30;99.90;;;;;;5029825;28;20205;-87
2021/03/12 06:30:14;;;;;;;31.43;16.97;;;3.40;99.90;;;;;;5030632;28;20234;-86
2021/03/12 06:32:48;;;;;;;34.13;18.73;;;3.40;99.90;;;;;;5011458;28;20318;-86
2021/03/12 06:35:19;;;;;;;33.57;19.83;;;3.40;99.90;;;;;;5028790;28;20175;-88
2021/03/12 06:37:46;;;;;;;36.80;19.80;;;3.40;99.90;;;;;;5029027;28;20556;-88
2021/03/12 06:40:29;;;;;;;30.77;16.63;;;3.40;99.90;;;;;;5011479;28;20184;-86
2021/03/12 06:43:09;;;;;;;32.27;17.07;;;3.50;99.90;;;;;;5002262;28;20181;-87
2021/03/12 06:45:41;;;;;;;33.30;19.33;;;3.50;99.90;;;;;;5010836;28;20183;-85
2021/03/12 06:48:22;;;;;;;34.07;18.90;;;3.60;99.90;;;;;;5012022;28;20204;-87
2021/03/12 06:51:10;;;;;;;30.53;18.27;;;3.70;99.90;;;;;;5015534;28;20291;-86
2021/03/12 06:53:45;;;;;;;31.97;15.90;;;3.70;99.90;;;;;;5015947;28;20632;-90
2021/03/12 06:56:15;;;;;;;33.97;19.23;;;3.70;99.90;;;;;;5015910;28;20800;-88
2021/03/12 06:59:01;;;;;;;32.83;19.97;;;3.70;99.90;;;;;;5033614;28;20607;-88
2021/03/12 07:01:27;;;;;;;38.70;20.33;;;3.70;99.90;;;;;;5031060;28;20228;-88
2021/03/12 07:04:13;;;;;;;37.00;20.90;;;3.80;99.90;;;;;;5016506;28;20219;-86
2021/03/12 07:06:47;;;;;;;30.83;19.30;;;3.70;99.90;;;;;;5038051;28;20185;-87
2021/03/12 07:09:13;;;;;;;32.77;19.63;;;3.70;99.90;;;;;;5015898;28;20212;-88
2021/03/12 07:11:39;;;;;;;36.20;20.47;;;3.80;99.90;;;;;;5033909;28;20188;-86
2021/03/12 07:14:05;;;;;;;34.90;20.70;;;3.80;99.90;;;;;;5032209;28;20196;-87
2021/03/12 07:16:31;;;;;;;38.80;20.77;;;4.70;99.90;;;;;;5031172;28;20179;-88
2021/03/12 07:18:57;;;;;;;38.53;20.73;;;3.90;99.90;;;;;;5015368;28;20603;-88
2021/03/12 07:21:28;;;;;;;34.93;20.83;;;3.80;99.90;;;;;;5015663;28;20182;-88
2021/03/12 07:23:59;;;;;;;31.23;19.53;;;4.00;99.90;;;;;;5033970;28;20176;-87
2021/03/12 07:26:35;;;;;;;35.37;19.80;;;3.80;99.90;;;;;;5015233;28;20188;-88
2021/03/12 07:29:03;;;;;;;35.07;21.50;;;3.90;99.90;;;;;;5019530;28;20635;-87
2021/03/12 07:31:36;;;;;;;33.13;20.63;;;3.90;99.90;;;;;;5021917;28;20215;-87
2021/03/12 07:34:15;;;;;;;30.17;18.27;;;3.90;99.90;;;;;;5033465;28;20950;-87
2021/03/12 07:36:45;;;;;;;36.83;19.83;;;4.00;99.90;;;;;;5015556;28;20300;-86
2021/03/12 07:39:15;;;;;;;33.77;20.20;;;4.00;99.90;;;;;;5015423;28;20188;-86
2021/03/12 07:41:42;;;;;;;34.53;20.13;;;4.00;99.90;;;;;;5014922;28;20194;-87
2021/03/12 07:44:13;;;;;;;39.63;21.63;;;4.00;99.90;;;;;;5033568;28;20189;-88
2021/03/12 07:46:39;;;;;;;39.10;21.27;;;3.90;99.90;;;;;;5032603;28;20185;-88
2021/03/12 07:49:27;;;;;;;42.23;22.10;;;4.00;99.90;;;;;;5031290;28;20220;-86
2021/03/12 07:51:54;;;;;;;38.40;22.10;;;3.90;99.90;;;;;;5022599;28;20203;-87
2021/03/12 07:54:39;;;;;;;34.03;19.73;;;4.10;99.90;;;;;;5014832;28;20242;-87
2021/03/12 07:57:08;;;;;;;30.33;16.83;;;3.90;99.90;;;;;;5032656;28;20192;-88
2021/03/12 07:59:46;;;;;;;39.63;22.53;;;3.80;99.90;;;;;;5032358;28;20327;-87
2021/03/12 08:02:12;;;;;;;45.37;23.97;;;4.00;99.90;;;;;;5032067;28;20196;-87
2021/03/12 08:04:38;;;;;;;42.00;23.30;;;3.70;99.90;;;;;;5013911;28;20243;-85
2021/03/12 08:07:16;;;;;;;47.03;25.13;;;3.70;99.90;;;;;;5014624;28;20200;-88
2021/03/12 08:09:46;;;;;;;43.63;24.40;;;3.60;99.90;;;;;;5030839;28;20220;-86
2021/03/12 08:12:31;;;;;;;41.50;23.33;;;3.50;99.90;;;;;;5032308;28;20188;-86
2021/03/12 08:15:25;;;;;;;45.40;22.80;;;4.30;99.90;;;;;;5031527;28;20238;-87
2021/03/12 08:17:57;;;;;;;31.53;17.80;;;3.50;99.90;;;;;;5031311;28;20540;-86
2021/03/12 08:20:27;;;;;;;41.83;20.30;;;3.40;99.90;;;;;;5013747;28;20670;-85
2021/03/12 08:22:54;;;;;;;47.33;25.30;;;3.50;99.90;;;;;;5034559;28;20184;-87
2021/03/12 08:25:31;;;;;;;44.63;24.90;;;4.10;99.90;;;;;;5031497;28;20177;-86
2021/03/12 08:27:59;;;;;;;45.30;25.93;;;3.50;99.90;;;;;;5031864;28;20259;-85
2021/03/12 08:30:24;;;;;;;51.13;25.97;;;4.00;99.90;;;;;;5032240;28;20208;-86
2021/03/12 08:32:54;;;;;;;47.63;24.40;;;3.50;99.90;;;;;;5031770;28;20182;-88
2021/03/12 08:35:32;;;;;;;56.83;26.47;;;3.50;99.90;;;;;;5031817;28;20250;-87
2021/03/12 08:38:02;;;;;;;46.63;25.50;;;3.50;99.90;;;;;;5022747;28;20200;-88
2021/03/12 08:40:29;;;;;;;46.70;25.83;;;3.60;99.90;;;;;;5030822;28;20289;-88
2021/03/12 08:43:08;;;;;;;46.47;25.60;;;3.70;99.90;;;;;;5014055;28;20184;-88
2021/03/12 08:45:44;;;;;;;44.13;23.87;;;3.50;99.90;;;;;;5031700;28;20184;-87
2021/03/12 08:48:15;;;;;;;42.60;23.77;;;3.50;99.90;;;;;;5023926;28;20680;-88
2021/03/12 08:51:01;;;;;;;49.23;26.50;;;3.60;99.90;;;;;;5030344;28;20196;-89
2021/03/12 08:53:29;;;;;;;40.80;23.43;;;3.50;99.90;;;;;;5025682;28;20195;-88
2021/03/12 08:55:58;;;;;;;46.53;23.53;;;3.50;99.90;;;;;;5031077;28;20204;-88
2021/03/12 08:58:31;;;;;;;48.53;27.23;;;3.40;99.90;;;;;;5031897;28;20250;-87
2021/03/12 09:00:59;;;;;;;48.23;27.47;;;3.40;99.90;;;;;;5013187;28;20220;-87
2021/03/12 09:03:29;;;;;;;47.50;24.77;;;3.40;99.90;;;;;;5031943;28;20192;-89
2021/03/12 09:06:05;;;;;;;48.00;25.47;;;3.40;99.90;;;;;;5031214;28;20188;-90
2021/03/12 09:08:32;;;;;;;52.33;28.17;;;3.40;99.90;;;;;;5021799;28;20207;-89
2021/03/12 09:10:58;;;;;;;54.60;28.97;;;3.40;99.90;;;;;;5029836;28;20199;-90
2021/03/12 09:13:29;;;;;;;56.70;28.83;;;3.60;99.90;;;;;;5029941;28;20184;-90
2021/03/12 09:15:55;;;;;;;57.97;28.97;;;3.40;99.90;;;;;;5013666;28;20185;-89
2021/03/12 09:18:23;;;;;;;53.33;28.70;;;3.50;99.90;;;;;;5013545;28;20184;-89
2021/03/12 09:21:03;;;;;;;48.83;28.80;;;3.50;99.90;;;;;;5013426;28;20189;-89
2021/03/12 09:23:35;;;;;;;55.50;30.03;;;3.70;99.90;;;;;;5013417;28;20681;-90
2021/03/12 09:26:01;;;;;;;54.37;30.03;;;3.50;99.90;;;;;;5031015;28;20192;-89
2021/03/12 09:28:29;;;;;;;49.63;29.37;;;3.60;99.90;;;;;;5031357;28;20267;-89
2021/03/12 09:30:56;;;;;;;50.63;28.37;;;3.60;99.90;;;;;;5030764;28;20188;-90
2021/03/12 09:33:31;;;;;;;56.97;30.30;;;3.60;99.90;;;;;;5013550;28;20585;-89
2021/03/12 09:35:59;;;;;;;53.87;28.63;;;3.60;99.90;;;;;;5030489;28;20197;-90
2021/03/12 09:38:41;;;;;;;55.57;29.53;;;5.20;99.90;;;;;;5013449;28;20195;-91
2021/03/12 09:41:40;;;;;;;54.33;28.50;;;3.80;99.90;;;;;;5003330;28;20331;-90
2021/03/12 09:44:07;;;;;;;47.60;24.93;;;3.90;99.90;;;;;;4983690;28;20193;-87
2021/03/12 09:46:43;;;;;;;52.10;28.13;;;3.90;99.90;;;;;;5012635;28;20744;-89
2021/03/12 09:49:11;;;;;;;47.50;26.20;;;4.00;99.90;;;;;;5030463;28;20205;-89
2021/03/12 09:51:38;;;;;;;51.40;28.30;;;4.10;99.90;;;;;;5030486;28;20191;-87
2021/03/12 09:54:05;;;;;;;45.43;26.23;;;4.10;99.90;;;;;;5014821;28;20200;-87
2021/03/12 09:56:31;;;;;;;46.93;27.53;;;4.10;99.90;;;;;;5030582;28;20193;-90
2021/03/12 09:59:02;;;;;;;53.70;29.30;;;4.10;99.90;;;;;;5012715;28;20194;-89
2021/03/12 10:01:36;;;;;;;53.90;28.23;;;4.30;99.90;;;;;;5029900;28;20689;-90
2021/03/12 10:04:02;;;;;;;46.17;24.40;;;5.60;99.90;;;;;;5029042;28;20179;-88
2021/03/12 10:06:28;;;;;;;48.90;27.63;;;4.50;99.90;;;;;;5012208;28;20194;-88
2021/03/12 10:09:09;;;;;;;48.70;27.63;;;4.60;99.90;;;;;;5013093;28;20208;-87
2021/03/12 10:11:49;;;;;;;40.83;21.20;;;4.70;99.90;;;;;;5012234;28;20195;-89
2021/03/12 10:14:38;;;;;;;45.97;26.27;;;4.70;99.90;;;;;;5029534;28;20202;-87
2021/03/12 10:17:07;;;;;;;43.17;23.40;;;4.80;99.90;;;;;;5026592;28;20219;-89
2021/03/12 10:19:41;;;;;;;43.90;25.03;;;5.60;99.90;;;;;;5030707;28;20182;-90
2021/03/12 10:22:34;;;;;;;41.50;24.87;;;5.00;99.90;;;;;;5018185;28;20285;-89
2021/03/12 10:25:35;;;;;;;34.17;18.30;;;5.10;99.90;;;;;;5032334;28;20193;-89
2021/03/12 10:28:03;;;;;;;38.93;23.37;;;5.30;99.90;;;;;;5026108;28;20231;-89
2021/03/12 10:30:33;;;;;;;27.53;16.10;;;5.40;99.90;;;;;;5016698;28;20183;-88
2021/03/12 10:33:04;;;;;;;42.50;24.77;;;5.50;99.90;;;;;;5034289;28;20195;-88
2021/03/12 10:35:33;;;;;;;37.47;20.90;;;5.50;99.90;;;;;;5016319;28;20180;-88
2021/03/12 10:38:22;;;;;;;41.30;24.23;;;5.60;99.90;;;;;;5016479;28;20636;-94
2021/03/12 10:40:53;;;;;;;40.27;23.77;;;5.80;99.90;;;;;;5035285;28;20186;-91
2021/03/12 10:43:27;;;;;;;52.00;24.80;;;5.90;99.90;;;;;;5017320;28;20644;-91
2021/03/12 10:45:55;;;;;;;46.60;22.97;;;6.20;99.90;;;;;;5034375;28;20180;-93
2021/03/12 10:48:28;;;;;;;37.90;21.93;;;6.40;99.90;;;;;;5036527;28;20204;-90
2021/03/12 10:50:57;;;;;;;40.03;19.90;;;6.40;99.90;;;;;;5032792;28;20234;-90
2021/03/12 10:53:23;;;;;;;41.73;24.23;;;6.40;99.90;;;;;;5018458;28;20672;-91
2021/03/12 10:55:52;;;;;;;35.63;20.03;;;6.70;99.90;;;;;;5035624;28;20271;-94
2021/03/12 10:58:29;;;;;;;32.40;18.10;;;6.90;99.90;;;;;;5038170;28;20218;-93
2021/03/12 11:01:25;;;;;;;30.87;19.27;;;7.00;99.90;;;;;;5041977;28;20235;-93
2021/03/12 11:03:53;;;;;;;31.47;19.17;;;7.00;99.90;;;;;;5033625;28;20195;-94
2021/03/12 11:06:22;;;;;;;33.03;20.53;;;7.00;99.90;;;;;;5018196;28;20188;-91
2021/03/12 11:08:48;;;;;;;31.73;17.30;;;6.90;99.90;;;;;;5036324;28;20214;-92
2021/03/12 11:11:21;;;;;;;34.53;20.33;;;6.80;99.90;;;;;;5018266;28;20204;-92
2021/03/12 11:13:49;;;;;;;37.60;21.63;;;6.60;99.90;;;;;;5036345;28;20191;-91
2021/03/12 11:16:18;;;;;;;32.30;18.53;;;6.60;99.90;;;;;;5016817;28;20218;-93
2021/03/12 11:18:47;;;;;;;30.70;17.80;;;6.60;99.90;;;;;;5019997;28;20672;-92
2021/03/12 11:21:13;;;;;;;38.37;20.87;;;6.40;99.90;;;;;;5037419;28;20180;-93
2021/03/12 11:23:53;;;;;;;33.47;20.53;;;6.50;99.90;;;;;;5034993;28;20188;-91
2021/03/12 11:26:28;;;;;;;36.17;20.87;;;6.20;99.90;;;;;;5028404;28;20657;-91
2021/03/12 11:28:54;;;;;;;42.37;23.07;;;6.70;99.90;;;;;;5021776;28;20213;-88
2021/03/12 11:31:25;;;;;;;38.10;24.77;;;6.10;99.90;;;;;;5031411;28;20196;-93
2021/03/12 11:33:51;;;;;;;45.73;24.03;;;6.20;99.90;;;;;;5026615;28;20661;-95
2021/03/12 11:36:17;;;;;;;50.07;27.20;;;6.20;99.90;;;;;;5025492;28;20208;-91
2021/03/12 11:38:46;;;;;;;37.23;22.47;;;6.30;99.90;;;;;;5035077;28;20187;-95
2021/03/12 11:41:12;;;;;;;41.73;26.63;;;6.40;99.90;;;;;;5049637;28;20211;-91
2021/03/12 11:43:40;;;;;;;41.90;23.00;;;6.50;99.90;;;;;;5036884;28;20185;-90
2021/03/12 11:46:06;;;;;;;36.40;21.97;;;6.60;99.90;;;;;;5044742;28;20169;-91
2021/03/12 11:48:31;;;;;;;34.17;21.93;;;6.70;99.90;;;;;;5036711;28;20237;-87
2021/03/12 11:50:57;;;;;;;31.47;20.40;;;6.80;99.90;;;;;;5057249;28;20168;-87
2021/03/12 11:53:29;;;;;;;31.37;18.87;;;7.00;99.90;;;;;;5039824;28;20165;-85
2021/03/12 11:55:58;;;;;;;30.43;18.40;;;7.10;99.90;;;;;;5024277;28;20197;-88
2021/03/12 11:58:28;;;;;;;30.30;18.77;;;7.10;99.90;;;;;;5032099;28;20212;-88
2021/03/12 12:01:24;;;;;;;29.37;17.50;;;7.10;99.90;;;;;;5021300;28;20236;-92
2021/03/12 12:03:50;;;;;;;27.37;16.27;;;7.30;99.90;;;;;;5049559;28;20170;-89
2021/03/12 12:06:15;;;;;;;25.43;16.73;;;7.30;99.90;;;;;;5037648;28;20219;-90
2021/03/12 12:08:50;;;;;;;25.57;15.97;;;7.20;99.90;;;;;;5025171;28;20232;-93
2021/03/12 12:11:30;;;;;;;23.67;14.87;;;7.20;99.90;;;;;;5015522;28;20199;-93
2021/03/12 12:14:22;;;;;;;21.87;15.50;;;7.20;99.90;;;;;;5013209;28;20275;-91
2021/03/12 12:20:17;;;;;;;19.50;12.50;;;7.20;99.90;;;;;;4993448;28;20193;-94
2021/03/12 12:22:44;;;;;;;18.47;13.57;;;7.30;99.90;;;;;;5035023;28;20181;-93
2021/03/12 12:25:11;;;;;;;17.07;11.10;;;7.30;99.90;;;;;;5016072;28;20247;-91
2021/03/12 12:27:37;;;;;;;22.13;12.33;;;7.50;99.90;;;;;;5015451;28;20209;-94
2021/03/12 12:30:05;;;;;;;17.83;11.77;;;7.70;99.90;;;;;;5017301;28;20720;-90
2021/03/12 12:32:30;;;;;;;17.50;11.03;;;7.90;99.90;;;;;;5016039;28;20212;-92
2021/03/12 12:34:56;;;;;;;17.77;12.17;;;7.90;99.90;;;;;;5018185;28;20650;-93
2021/03/12 12:37:25;;;;;;;16.10;10.50;;;7.80;99.90;;;;;;5037839;28;20288;-93
2021/03/12 12:39:51;;;;;;;16.53;11.57;;;7.80;99.90;;;;;;5015860;28;20182;-93
2021/03/12 12:42:17;;;;;;;15.23;10.13;;;7.80;99.90;;;;;;5038560;28;20188;-93
2021/03/12 12:44:44;;;;;;;15.83;10.43;;;7.60;99.90;;;;;;5019642;28;20181;-91
2021/03/12 12:47:10;;;;;;;13.90;9.10;;;7.60;99.90;;;;;;5011413;28;20181;-94
2021/03/12 12:49:36;;;;;;;13.73;8.27;;;7.60;99.90;;;;;;5030600;28;20221;-89
2021/03/12 12:52:03;;;;;;;13.63;7.57;;;7.50;99.90;;;;;;5011404;28;20188;-87
2021/03/12 12:54:29;;;;;;;11.83;7.10;;;7.50;99.90;;;;;;5009393;28;20178;-91